sensor_id;sensor_type;location;lat;lon;timestamp;temperature;humidity
23637;DHT22;11995;50.842;4.456;2022-12-29T00:00:07;11.40;99.90
23637;DHT22;11995;50.842;4.456;2022-12-29T00:02:34;11.40;99.90
23637;DHT22;11995;50.842;4.456;2022-12-29T00:05:01;11.40;99.90
23637;DHT22;11995;50.842;4.456;2022-12-29T00:07:28;11.30;99.90
23637;DHT22;11995;50.842;4.456;2022-12-29T00:09:55;11.30;99.90
23637;DHT22;11995;50.842;4.456;2022-12-29T00:12:22;11.40;99.90
23637;DHT22;11995;50.842;4.456;2022-12-29T00:14:49;11.50;99.90
23637;DHT22;11995;50.842;4.456;2022-12-29T00:17:34;11.40;99.90
23637;DHT22;11995;50.842;4.456;2022-12-29T00:20:00;11.40;99.90
23637;DHT22;11995;50.842;4.456;2022-12-29T00:22:45;11.40;99.90
23637;DHT22;11995;50.842;4.456;2022-12-29T00:25:30;11.30;99.90
23637;DHT22;11995;50.842;4.456;2022-12-29T00:28:15;11.40;99.90
23637;DHT22;11995;50.842;4.456;2022-12-29T00:31:00;11.40;99.90
23637;DHT22;11995;50.842;4.456;2022-12-29T00:33:45;11.40;99.90
23637;DHT22;11995;50.842;4.456;2022-12-29T00:36:38;11.40;99.90
23637;DHT22;11995;50.842;4.456;2022-12-29T00:39:02;11.50;99.90
23637;DHT22;11995;50.842;4.456;2022-12-29T00:41:47;11.50;99.90
23637;DHT22;11995;50.842;4.456;2022-12-29T00:44:32;11.40;99.90
23637;DHT22;11995;50.842;4.456;2022-12-29T00:46:59;11.50;99.90
23637;DHT22;11995;50.842;4.456;2022-12-29T00:49:30;11.50;99.90
23637;DHT22;11995;50.842;4.456;2022-12-29T00:54:27;11.50;99.90
23637;DHT22;11995;50.842;4.456;2022-12-29T00:56:54;11.60;99.90
23637;DHT22;11995;50.842;4.456;2022-12-29T00:59:21;11.50;99.90
23637;DHT22;11995;50.842;4.456;2022-12-29T01:01:50;11.40;99.90
23637;DHT22;11995;50.842;4.456;2022-12-29T01:04:18;11.50;99.90
23637;DHT22;11995;50.842;4.456;2022-12-29T01:06:45;11.50;99.90
23637;DHT22;11995;50.842;4.456;2022-12-29T01:09:12;11.50;99.90
23637;DHT22;11995;50.842;4.456;2022-12-29T01:11:57;11.50;99.90
23637;DHT22;11995;50.842;4.456;2022-12-29T01:14:24;11.40;99.90
23637;DHT22;11995;50.842;4.456;2022-12-29T01:16:51;11.50;99.90
23637;DHT22;11995;50.842;4.456;2022-12-29T01:19:18;11.40;99.90
23637;DHT22;11995;50.842;4.456;2022-12-29T01:21:46;11.30;99.90
23637;DHT22;11995;50.842;4.456;2022-12-29T01:24:13;11.20;99.90
23637;DHT22;11995;50.842;4.456;2022-12-29T01:26:40;11.20;99.90
23637;DHT22;11995;50.842;4.456;2022-12-29T01:29:07;11.20;99.90
23637;DHT22;11995;50.842;4.456;2022-12-29T01:31:34;11.10;99.90
23637;DHT22;11995;50.842;4.456;2022-12-29T01:34:01;11.00;99.90
23637;DHT22;11995;50.842;4.456;2022-12-29T01:36:29;11.00;99.90
23637;DHT22;11995;50.842;4.456;2022-12-29T01:38:55;11.10;99.90
23637;DHT22;11995;50.842;4.456;2022-12-29T01:41:22;11.00;99.90
23637;DHT22;11995;50.842;4.456;2022-12-29T01:43:53;11.00;99.90
23637;DHT22;11995;50.842;4.456;2022-12-29T01:48:51;10.90;99.90
23637;DHT22;11995;50.842;4.456;2022-12-29T01:51:18;10.90;99.90
23637;DHT22;11995;50.842;4.456;2022-12-29T01:53:46;10.90;99.90
23637;DHT22;11995;50.842;4.456;2022-12-29T01:56:14;11.00;99.90
23637;DHT22;11995;50.842;4.456;2022-12-29T01:58:41;11.00;99.90
23637;DHT22;11995;50.842;4.456;2022-12-29T02:01:10;10.90;99.90
23637;DHT22;11995;50.842;4.456;2022-12-29T02:03:36;10.90;99.90
23637;DHT22;11995;50.842;4.456;2022-12-29T02:06:08;10.90;99.90
23637;DHT22;11995;50.842;4.456;2022-12-29T02:08:32;10.80;99.90
23637;DHT22;11995;50.842;4.456;2022-12-29T02:10:59;10.80;99.90
23637;DHT22;11995;50.842;4.456;2022-12-29T02:13:27;10.90;99.90
23637;DHT22;11995;50.842;4.456;2022-12-29T02:15:58;10.90;99.90
23637;DHT22;11995;50.842;4.456;2022-12-29T02:23:43;10.50;99.90
23637;DHT22;11995;50.842;4.456;2022-12-29T02:31:36;10.30;99.90
23637;DHT22;11995;50.842;4.456;2022-12-29T02:36:47;10.20;99.90
23637;DHT22;11995;50.842;4.456;2022-12-29T02:39:17;10.20;99.90
23637;DHT22;11995;50.842;4.456;2022-12-29T02:41:54;10.20;99.90
23637;DHT22;11995;50.842;4.456;2022-12-29T02:47:09;10.10;99.90
23637;DHT22;11995;50.842;4.456;2022-12-29T02:49:34;10.00;99.90
23637;DHT22;11995;50.842;4.456;2022-12-29T02:52:09;9.90;99.90
23637;DHT22;11995;50.842;4.456;2022-12-29T02:54:35;9.90;99.90
23637;DHT22;11995;50.842;4.456;2022-12-29T02:57:10;9.90;99.90
23637;DHT22;11995;50.842;4.456;2022-12-29T02:59:37;9.80;99.90
23637;DHT22;11995;50.842;4.456;2022-12-29T03:02:10;9.80;99.90
23637;DHT22;11995;50.842;4.456;2022-12-29T03:09:43;9.80;99.90
23637;DHT22;11995;50.842;4.456;2022-12-29T03:14:57;9.60;99.90
23637;DHT22;11995;50.842;4.456;2022-12-29T03:17:53;9.60;99.90
23637;DHT22;11995;50.842;4.456;2022-12-29T03:20:21;9.40;99.90
23637;DHT22;11995;50.842;4.456;2022-12-29T03:22:48;9.40;99.90
23637;DHT22;11995;50.842;4.456;2022-12-29T03:25:23;9.40;99.90
23637;DHT22;11995;50.842;4.456;2022-12-29T03:27:56;9.40;99.90
23637;DHT22;11995;50.842;4.456;2022-12-29T03:30:19;9.40;99.90
23637;DHT22;11995;50.842;4.456;2022-12-29T03:32:52;9.50;99.90
23637;DHT22;11995;50.842;4.456;2022-12-29T03:35:20;9.60;99.90
23637;DHT22;11995;50.842;4.456;2022-12-29T03:40:26;9.80;99.90
23637;DHT22;11995;50.842;4.456;2022-12-29T03:42:53;9.80;99.90
23637;DHT22;11995;50.842;4.456;2022-12-29T03:45:20;9.80;99.90
23637;DHT22;11995;50.842;4.456;2022-12-29T03:47:46;9.90;99.90
23637;DHT22;11995;50.842;4.456;2022-12-29T03:50:13;9.90;99.90
23637;DHT22;11995;50.842;4.456;2022-12-29T03:52:40;9.90;99.90
23637;DHT22;11995;50.842;4.456;2022-12-29T03:55:07;9.90;99.90
23637;DHT22;11995;50.842;4.456;2022-12-29T03:57:34;9.90;99.90
23637;DHT22;11995;50.842;4.456;2022-12-29T04:00:02;9.90;99.90
23637;DHT22;11995;50.842;4.456;2022-12-29T04:02:29;9.90;99.90
23637;DHT22;11995;50.842;4.456;2022-12-29T04:04:56;9.90;99.90
23637;DHT22;11995;50.842;4.456;2022-12-29T04:07:23;9.80;99.90
23637;DHT22;11995;50.842;4.456;2022-12-29T04:09:49;9.80;99.90
23637;DHT22;11995;50.842;4.456;2022-12-29T04:12:16;9.80;99.90
23637;DHT22;11995;50.842;4.456;2022-12-29T04:14:43;9.70;99.90
23637;DHT22;11995;50.842;4.456;2022-12-29T04:17:10;9.70;99.90
23637;DHT22;11995;50.842;4.456;2022-12-29T04:19:37;9.70;99.90
23637;DHT22;11995;50.842;4.456;2022-12-29T04:22:04;9.80;99.90
23637;DHT22;11995;50.842;4.456;2022-12-29T04:24:30;9.70;99.90
23637;DHT22;11995;50.842;4.456;2022-12-29T04:26:57;9.70;99.90
23637;DHT22;11995;50.842;4.456;2022-12-29T04:29:24;9.70;99.90
23637;DHT22;11995;50.842;4.456;2022-12-29T04:31:51;9.80;99.90
23637;DHT22;11995;50.842;4.456;2022-12-29T04:34:18;9.80;99.90
23637;DHT22;11995;50.842;4.456;2022-12-29T04:36:44;9.80;99.90
23637;DHT22;11995;50.842;4.456;2022-12-29T04:39:11;9.70;99.90
23637;DHT22;11995;50.842;4.456;2022-12-29T04:41:38;9.80;99.90
23637;DHT22;11995;50.842;4.456;2022-12-29T04:44:05;9.80;99.90
23637;DHT22;11995;50.842;4.456;2022-12-29T04:46:32;9.90;99.90
23637;DHT22;11995;50.842;4.456;2022-12-29T04:48:58;9.90;99.90
23637;DHT22;11995;50.842;4.456;2022-12-29T04:51:27;9.90;99.90
23637;DHT22;11995;50.842;4.456;2022-12-29T04:53:54;9.90;99.90
23637;DHT22;11995;50.842;4.456;2022-12-29T04:56:20;10.00;99.90
23637;DHT22;11995;50.842;4.456;2022-12-29T04:58:47;10.10;99.90
23637;DHT22;11995;50.842;4.456;2022-12-29T05:01:14;10.20;99.90
23637;DHT22;11995;50.842;4.456;2022-12-29T05:03:41;10.20;99.90
23637;DHT22;11995;50.842;4.456;2022-12-29T05:06:08;10.20;99.90
23637;DHT22;11995;50.842;4.456;2022-12-29T05:08:34;10.10;99.90
23637;DHT22;11995;50.842;4.456;2022-12-29T05:11:01;10.10;99.90
23637;DHT22;11995;50.842;4.456;2022-12-29T05:13:28;10.10;99.90
23637;DHT22;11995;50.842;4.456;2022-12-29T05:15:55;10.20;99.90
23637;DHT22;11995;50.842;4.456;2022-12-29T05:18:22;10.20;99.90
23637;DHT22;11995;50.842;4.456;2022-12-29T05:20:49;10.20;99.90
23637;DHT22;11995;50.842;4.456;2022-12-29T05:23:16;10.20;99.90
23637;DHT22;11995;50.842;4.456;2022-12-29T05:25:43;10.20;99.90
23637;DHT22;11995;50.842;4.456;2022-12-29T05:28:12;10.20;99.90
23637;DHT22;11995;50.842;4.456;2022-12-29T05:30:39;10.20;99.90
23637;DHT22;11995;50.842;4.456;2022-12-29T05:33:06;10.10;99.90
23637;DHT22;11995;50.842;4.456;2022-12-29T05:35:32;10.10;99.90
23637;DHT22;11995;50.842;4.456;2022-12-29T05:37:59;10.20;99.90
23637;DHT22;11995;50.842;4.456;2022-12-29T05:40:27;10.40;99.90
23637;DHT22;11995;50.842;4.456;2022-12-29T05:42:54;10.40;99.90
23637;DHT22;11995;50.842;4.456;2022-12-29T05:45:20;10.40;99.90
23637;DHT22;11995;50.842;4.456;2022-12-29T05:47:47;10.40;99.90
23637;DHT22;11995;50.842;4.456;2022-12-29T05:50:14;10.30;99.90
23637;DHT22;11995;50.842;4.456;2022-12-29T05:52:41;10.30;99.90
23637;DHT22;11995;50.842;4.456;2022-12-29T05:55:08;10.20;99.90
23637;DHT22;11995;50.842;4.456;2022-12-29T05:57:35;10.20;99.90
23637;DHT22;11995;50.842;4.456;2022-12-29T06:00:03;10.20;99.90
23637;DHT22;11995;50.842;4.456;2022-12-29T06:02:30;10.30;99.90
23637;DHT22;11995;50.842;4.456;2022-12-29T06:04:58;10.20;99.90
23637;DHT22;11995;50.842;4.456;2022-12-29T06:07:25;10.20;99.90
23637;DHT22;11995;50.842;4.456;2022-12-29T06:09:51;10.20;99.90
23637;DHT22;11995;50.842;4.456;2022-12-29T06:12:18;10.20;99.90
23637;DHT22;11995;50.842;4.456;2022-12-29T06:14:45;10.20;99.90
23637;DHT22;11995;50.842;4.456;2022-12-29T06:17:12;10.20;99.90
23637;DHT22;11995;50.842;4.456;2022-12-29T06:19:39;10.20;99.90
23637;DHT22;11995;50.842;4.456;2022-12-29T06:22:05;10.20;99.90
23637;DHT22;11995;50.842;4.456;2022-12-29T06:24:33;10.20;99.90
23637;DHT22;11995;50.842;4.456;2022-12-29T06:27:00;10.10;99.90
23637;DHT22;11995;50.842;4.456;2022-12-29T06:29:26;10.10;99.90
23637;DHT22;11995;50.842;4.456;2022-12-29T06:31:53;10.10;99.90
23637;DHT22;11995;50.842;4.456;2022-12-29T06:34:22;10.10;99.90
23637;DHT22;11995;50.842;4.456;2022-12-29T06:36:49;10.10;99.90
23637;DHT22;11995;50.842;4.456;2022-12-29T06:39:15;10.10;99.90
23637;DHT22;11995;50.842;4.456;2022-12-29T06:41:42;10.10;99.90
23637;DHT22;11995;50.842;4.456;2022-12-29T06:44:09;10.20;99.90
23637;DHT22;11995;50.842;4.456;2022-12-29T06:46:36;10.20;99.90
23637;DHT22;11995;50.842;4.456;2022-12-29T06:49:03;10.20;99.90
23637;DHT22;11995;50.842;4.456;2022-12-29T06:51:29;10.20;99.90
23637;DHT22;11995;50.842;4.456;2022-12-29T06:53:56;10.30;99.90
23637;DHT22;11995;50.842;4.456;2022-12-29T06:56:23;10.40;99.90
23637;DHT22;11995;50.842;4.456;2022-12-29T06:58:50;10.30;99.90
23637;DHT22;11995;50.842;4.456;2022-12-29T07:01:17;10.40;99.90
23637;DHT22;11995;50.842;4.456;2022-12-29T07:03:44;10.30;99.90
23637;DHT22;11995;50.842;4.456;2022-12-29T07:06:10;10.30;99.90
23637;DHT22;11995;50.842;4.456;2022-12-29T07:08:37;10.40;99.90
23637;DHT22;11995;50.842;4.456;2022-12-29T07:11:04;10.40;99.90
23637;DHT22;11995;50.842;4.456;2022-12-29T07:13:31;10.30;99.90
23637;DHT22;11995;50.842;4.456;2022-12-29T07:15:58;10.30;99.90
23637;DHT22;11995;50.842;4.456;2022-12-29T07:18:25;10.20;99.90
23637;DHT22;11995;50.842;4.456;2022-12-29T07:20:51;10.20;99.90
23637;DHT22;11995;50.842;4.456;2022-12-29T07:23:18;10.20;99.90
23637;DHT22;11995;50.842;4.456;2022-12-29T07:25:45;10.30;99.90
23637;DHT22;11995;50.842;4.456;2022-12-29T07:28:12;10.40;99.90
23637;DHT22;11995;50.842;4.456;2022-12-29T07:30:39;10.40;99.90
23637;DHT22;11995;50.842;4.456;2022-12-29T07:33:06;10.40;99.90
23637;DHT22;11995;50.842;4.456;2022-12-29T07:35:33;10.30;99.90
23637;DHT22;11995;50.842;4.456;2022-12-29T07:38:00;10.30;99.90
23637;DHT22;11995;50.842;4.456;2022-12-29T07:40:27;10.30;99.90
23637;DHT22;11995;50.842;4.456;2022-12-29T07:42:54;10.30;99.90
23637;DHT22;11995;50.842;4.456;2022-12-29T07:45:21;10.30;99.90
23637;DHT22;11995;50.842;4.456;2022-12-29T07:47:49;10.30;99.90
23637;DHT22;11995;50.842;4.456;2022-12-29T07:50:16;10.30;99.90
23637;DHT22;11995;50.842;4.456;2022-12-29T07:52:43;10.40;99.90
23637;DHT22;11995;50.842;4.456;2022-12-29T07:55:10;10.40;99.90
23637;DHT22;11995;50.842;4.456;2022-12-29T07:57:37;10.30;99.90
23637;DHT22;11995;50.842;4.456;2022-12-29T08:00:04;10.40;99.90
23637;DHT22;11995;50.842;4.456;2022-12-29T08:02:31;10.40;99.90
23637;DHT22;11995;50.842;4.456;2022-12-29T08:04:58;10.40;99.90
23637;DHT22;11995;50.842;4.456;2022-12-29T08:07:25;10.40;99.90
23637;DHT22;11995;50.842;4.456;2022-12-29T08:09:51;10.50;99.90
23637;DHT22;11995;50.842;4.456;2022-12-29T08:12:18;10.40;99.90
23637;DHT22;11995;50.842;4.456;2022-12-29T08:14:45;10.50;99.90
23637;DHT22;11995;50.842;4.456;2022-12-29T08:17:12;10.40;99.90
23637;DHT22;11995;50.842;4.456;2022-12-29T08:19:38;10.40;99.90
23637;DHT22;11995;50.842;4.456;2022-12-29T08:22:05;10.40;99.90
23637;DHT22;11995;50.842;4.456;2022-12-29T08:24:32;10.40;99.90
23637;DHT22;11995;50.842;4.456;2022-12-29T08:26:59;10.50;99.90
23637;DHT22;11995;50.842;4.456;2022-12-29T08:29:26;10.50;99.90
23637;DHT22;11995;50.842;4.456;2022-12-29T08:31:53;10.40;99.90
23637;DHT22;11995;50.842;4.456;2022-12-29T08:34:19;10.40;99.90
23637;DHT22;11995;50.842;4.456;2022-12-29T08:36:46;10.40;99.90
23637;DHT22;11995;50.842;4.456;2022-12-29T08:39:13;10.40;99.90
23637;DHT22;11995;50.842;4.456;2022-12-29T08:41:40;10.40;99.90
23637;DHT22;11995;50.842;4.456;2022-12-29T08:44:07;10.50;99.90
23637;DHT22;11995;50.842;4.456;2022-12-29T08:46:34;10.40;99.90
23637;DHT22;11995;50.842;4.456;2022-12-29T08:49:01;10.50;99.90
23637;DHT22;11995;50.842;4.456;2022-12-29T08:51:28;10.50;99.90
23637;DHT22;11995;50.842;4.456;2022-12-29T08:53:55;10.50;99.90
23637;DHT22;11995;50.842;4.456;2022-12-29T08:56:21;10.50;99.90
23637;DHT22;11995;50.842;4.456;2022-12-29T08:58:50;10.50;99.90
23637;DHT22;11995;50.842;4.456;2022-12-29T09:01:17;10.60;99.90
23637;DHT22;11995;50.842;4.456;2022-12-29T09:03:45;10.60;99.90
23637;DHT22;11995;50.842;4.456;2022-12-29T09:06:12;10.50;99.90
23637;DHT22;11995;50.842;4.456;2022-12-29T09:08:39;10.60;99.90
23637;DHT22;11995;50.842;4.456;2022-12-29T09:11:07;10.60;99.90
23637;DHT22;11995;50.842;4.456;2022-12-29T09:13:34;10.60;99.90
23637;DHT22;11995;50.842;4.456;2022-12-29T09:16:01;10.40;99.90
23637;DHT22;11995;50.842;4.456;2022-12-29T09:18:28;10.40;99.90
23637;DHT22;11995;50.842;4.456;2022-12-29T09:20:59;10.60;99.90
23637;DHT22;11995;50.842;4.456;2022-12-29T09:23:26;10.60;99.90
23637;DHT22;11995;50.842;4.456;2022-12-29T09:25:55;10.50;99.90
23637;DHT22;11995;50.842;4.456;2022-12-29T09:28:22;10.50;99.90
23637;DHT22;11995;50.842;4.456;2022-12-29T09:30:49;10.60;99.90
23637;DHT22;11995;50.842;4.456;2022-12-29T09:33:16;10.60;99.90
23637;DHT22;11995;50.842;4.456;2022-12-29T09:35:44;10.50;99.90
23637;DHT22;11995;50.842;4.456;2022-12-29T09:38:11;10.40;99.90
23637;DHT22;11995;50.842;4.456;2022-12-29T09:40:39;10.40;99.90
23637;DHT22;11995;50.842;4.456;2022-12-29T09:45:42;10.60;99.90
23637;DHT22;11995;50.842;4.456;2022-12-29T09:48:16;10.70;99.90
23637;DHT22;11995;50.842;4.456;2022-12-29T09:50:38;10.80;99.90
23637;DHT22;11995;50.842;4.456;2022-12-29T09:53:09;10.80;99.90
23637;DHT22;11995;50.842;4.456;2022-12-29T09:55:42;10.70;99.90
23637;DHT22;11995;50.842;4.456;2022-12-29T09:58:06;10.70;99.90
23637;DHT22;11995;50.842;4.456;2022-12-29T10:00:38;10.70;99.90
23637;DHT22;11995;50.842;4.456;2022-12-29T10:03:03;10.80;99.90
23637;DHT22;11995;50.842;4.456;2022-12-29T10:05:33;10.70;99.90
23637;DHT22;11995;50.842;4.456;2022-12-29T10:08:04;10.60;99.90
23637;DHT22;11995;50.842;4.456;2022-12-29T10:10:37;10.70;99.90
23637;DHT22;11995;50.842;4.456;2022-12-29T10:13:10;10.70;99.90
23637;DHT22;11995;50.842;4.456;2022-12-29T10:18:15;10.70;99.90
23637;DHT22;11995;50.842;4.456;2022-12-29T10:20:48;10.60;99.90
23637;DHT22;11995;50.842;4.456;2022-12-29T10:23:22;10.70;99.90
23637;DHT22;11995;50.842;4.456;2022-12-29T10:25:48;10.80;99.90
23637;DHT22;11995;50.842;4.456;2022-12-29T10:28:27;10.80;99.90
23637;DHT22;11995;50.842;4.456;2022-12-29T10:30:48;10.70;99.90
23637;DHT22;11995;50.842;4.456;2022-12-29T10:33:26;10.80;99.90
23637;DHT22;11995;50.842;4.456;2022-12-29T10:35:46;10.90;99.90
23637;DHT22;11995;50.842;4.456;2022-12-29T10:43:31;10.90;99.90
23637;DHT22;11995;50.842;4.456;2022-12-29T10:46:02;10.70;99.90
23637;DHT22;11995;50.842;4.456;2022-12-29T10:48:33;10.70;99.90
23637;DHT22;11995;50.842;4.456;2022-12-29T10:51:03;10.80;99.90
23637;DHT22;11995;50.842;4.456;2022-12-29T10:53:38;10.90;99.90
23637;DHT22;11995;50.842;4.456;2022-12-29T10:56:00;10.90;99.90
23637;DHT22;11995;50.842;4.456;2022-12-29T10:58:27;10.90;99.90
23637;DHT22;11995;50.842;4.456;2022-12-29T11:00:55;10.90;99.90
23637;DHT22;11995;50.842;4.456;2022-12-29T11:03:36;11.00;99.90
23637;DHT22;11995;50.842;4.456;2022-12-29T11:08:30;11.00;99.90
23637;DHT22;11995;50.842;4.456;2022-12-29T11:11:04;11.10;99.90
23637;DHT22;11995;50.842;4.456;2022-12-29T11:13:34;11.10;99.90
23637;DHT22;11995;50.842;4.456;2022-12-29T11:15:59;11.10;99.90
23637;DHT22;11995;50.842;4.456;2022-12-29T11:18:28;11.10;99.90
23637;DHT22;11995;50.842;4.456;2022-12-29T11:20:59;11.10;99.90
23637;DHT22;11995;50.842;4.456;2022-12-29T11:26:05;11.20;99.90
23637;DHT22;11995;50.842;4.456;2022-12-29T11:28:22;11.20;99.90
23637;DHT22;11995;50.842;4.456;2022-12-29T11:30:55;11.20;99.90
23637;DHT22;11995;50.842;4.456;2022-12-29T11:33:19;11.20;99.90
23637;DHT22;11995;50.842;4.456;2022-12-29T11:35:46;11.20;99.90
23637;DHT22;11995;50.842;4.456;2022-12-29T11:38:20;11.30;99.90
23637;DHT22;11995;50.842;4.456;2022-12-29T11:40:47;11.10;99.90
23637;DHT22;11995;50.842;4.456;2022-12-29T11:43:25;11.00;99.90
23637;DHT22;11995;50.842;4.456;2022-12-29T11:45:51;11.00;99.90
23637;DHT22;11995;50.842;4.456;2022-12-29T11:48:19;11.00;99.90
23637;DHT22;11995;50.842;4.456;2022-12-29T11:50:51;10.90;99.90
23637;DHT22;11995;50.842;4.456;2022-12-29T11:56:02;10.80;99.90
23637;DHT22;11995;50.842;4.456;2022-12-29T11:58:31;10.90;99.90
23637;DHT22;11995;50.842;4.456;2022-12-29T12:01:02;10.90;99.90
23637;DHT22;11995;50.842;4.456;2022-12-29T12:03:26;10.80;99.90
23637;DHT22;11995;50.842;4.456;2022-12-29T12:05:55;10.80;99.90
23637;DHT22;11995;50.842;4.456;2022-12-29T12:11:09;10.70;99.90
23637;DHT22;11995;50.842;4.456;2022-12-29T12:16:18;10.70;99.90
23637;DHT22;11995;50.842;4.456;2022-12-29T12:21:18;10.60;99.90
23637;DHT22;11995;50.842;4.456;2022-12-29T12:23:48;10.50;99.90
23637;DHT22;11995;50.842;4.456;2022-12-29T12:28:51;10.70;99.90
23637;DHT22;11995;50.842;4.456;2022-12-29T12:31:21;10.70;99.90
23637;DHT22;11995;50.842;4.456;2022-12-29T12:33:43;10.60;99.90
23637;DHT22;11995;50.842;4.456;2022-12-29T12:54:40;10.80;99.90
23637;DHT22;11995;50.842;4.456;2022-12-29T13:00:24;10.60;99.90
23637;DHT22;11995;50.842;4.456;2022-12-29T13:02:40;10.70;99.90
23637;DHT22;11995;50.842;4.456;2022-12-29T13:18:29;10.60;99.90
23637;DHT22;11995;50.842;4.456;2022-12-29T13:21:01;10.50;99.90
23637;DHT22;11995;50.842;4.456;2022-12-29T13:23:29;10.50;99.90
23637;DHT22;11995;50.842;4.456;2022-12-29T13:25:57;10.50;99.90
23637;DHT22;11995;50.842;4.456;2022-12-29T13:28:31;10.60;99.90
23637;DHT22;11995;50.842;4.456;2022-12-29T13:33:43;10.60;99.90
23637;DHT22;11995;50.842;4.456;2022-12-29T13:36:22;10.50;99.90
23637;DHT22;11995;50.842;4.456;2022-12-29T13:38:47;10.40;99.90
23637;DHT22;11995;50.842;4.456;2022-12-29T13:41:33;10.40;99.90
23637;DHT22;11995;50.842;4.456;2022-12-29T13:43:56;10.40;99.90
23637;DHT22;11995;50.842;4.456;2022-12-29T13:46:25;10.40;99.90
23637;DHT22;11995;50.842;4.456;2022-12-29T13:48:53;10.40;99.90
23637;DHT22;11995;50.842;4.456;2022-12-29T13:51:21;10.40;99.90
23637;DHT22;11995;50.842;4.456;2022-12-29T14:01:41;10.40;99.90
23637;DHT22;11995;50.842;4.456;2022-12-29T14:04:11;10.40;99.90
23637;DHT22;11995;50.842;4.456;2022-12-29T14:06:37;10.40;99.90
23637;DHT22;11995;50.842;4.456;2022-12-29T14:09:26;10.30;99.90
23637;DHT22;11995;50.842;4.456;2022-12-29T14:11:35;10.40;99.90
23637;DHT22;11995;50.842;4.456;2022-12-29T14:14:12;10.40;99.90
23637;DHT22;11995;50.842;4.456;2022-12-29T14:16:39;10.50;99.90
23637;DHT22;11995;50.842;4.456;2022-12-29T14:19:12;10.40;99.90
23637;DHT22;11995;50.842;4.456;2022-12-29T14:21:39;10.50;99.90
23637;DHT22;11995;50.842;4.456;2022-12-29T14:26:51;10.70;99.90
23637;DHT22;11995;50.842;4.456;2022-12-29T14:31:50;10.60;99.90
23637;DHT22;11995;50.842;4.456;2022-12-29T14:39:42;10.70;99.90
23637;DHT22;11995;50.842;4.456;2022-12-29T14:41:48;10.70;99.90
23637;DHT22;11995;50.842;4.456;2022-12-29T14:44:18;10.60;99.90
23637;DHT22;11995;50.842;4.456;2022-12-29T14:46:54;10.50;99.90
23637;DHT22;11995;50.842;4.456;2022-12-29T14:49:21;10.40;99.90
23637;DHT22;11995;50.842;4.456;2022-12-29T14:51:46;10.40;99.90
23637;DHT22;11995;50.842;4.456;2022-12-29T14:56:59;10.40;99.90
23637;DHT22;11995;50.842;4.456;2022-12-29T14:59:27;10.30;99.90
23637;DHT22;11995;50.842;4.456;2022-12-29T15:01:55;10.00;99.90
23637;DHT22;11995;50.842;4.456;2022-12-29T15:04:25;9.90;99.90
23637;DHT22;11995;50.842;4.456;2022-12-29T15:06:51;9.90;99.90
23637;DHT22;11995;50.842;4.456;2022-12-29T15:09:23;9.80;99.90
23637;DHT22;11995;50.842;4.456;2022-12-29T15:11:57;9.60;99.90
